createdAt,value
2023-03-17T00:00:59.826Z,100903.40
2023-03-17T00:03:31.539Z,100905.40
2023-03-17T00:06:03.877Z,100904.40
2023-03-17T00:08:36.162Z,100905.20
2023-03-17T00:11:10.616Z,100905.60
2023-03-17T00:13:41.616Z,100911.60
2023-03-17T00:16:17.824Z,100904.00
2023-03-17T00:18:48.937Z,100905.40
2023-03-17T00:21:25.824Z,100901.20
2023-03-17T00:23:59.611Z,100904.60
2023-03-17T00:26:29.963Z,100899.60
2023-03-17T00:29:00.113Z,100902.80
2023-03-17T00:31:30.519Z,100905.20
2023-03-17T00:33:59.983Z,100903.60
2023-03-17T00:36:32.971Z,100904.80
2023-03-17T00:39:16.885Z,100905.20
2023-03-17T00:41:49.573Z,100905.80
2023-03-17T00:44:19.715Z,100899.00
2023-03-17T00:46:49.421Z,100902.40
2023-03-17T00:49:22.957Z,100897.40
2023-03-17T00:51:53.922Z,100885.80
2023-03-17T00:54:24.616Z,100875.40
2023-03-17T00:56:55.106Z,100868.40
2023-03-17T00:59:29.720Z,100868.20
2023-03-17T01:02:00.289Z,100871.20
2023-03-17T01:04:30.946Z,100870.80
2023-03-17T01:07:01.525Z,100855.40
2023-03-17T01:09:30.310Z,100845.00
2023-03-17T01:12:01.165Z,100839.00
2023-03-17T01:14:30.159Z,100836.60
2023-03-17T01:17:02.719Z,100841.40
2023-03-17T01:19:32.739Z,100837.00
2023-03-17T01:22:02.725Z,100837.20
2023-03-17T01:24:33.049Z,100824.40
2023-03-17T01:27:02.926Z,100807.00
2023-03-17T01:29:32.816Z,100800.60
2023-03-17T01:32:03.549Z,100800.20
2023-03-17T01:34:33.344Z,100809.20
2023-03-17T01:37:03.222Z,100817.40
2023-03-17T01:39:33.001Z,100810.60
2023-03-17T01:42:02.956Z,100805.80
2023-03-17T01:44:32.990Z,100809.80
2023-03-17T01:47:02.781Z,100809.00
2023-03-17T01:49:36.992Z,100813.00
2023-03-17T01:52:12.144Z,100809.40
2023-03-17T01:54:47.735Z,100807.60
2023-03-17T01:57:22.791Z,100794.20
2023-03-17T01:59:55.968Z,100790.60
2023-03-17T02:02:30.709Z,100799.60
2023-03-17T02:05:02.160Z,100796.00
2023-03-17T02:07:33.571Z,100798.00
2023-03-17T02:10:03.357Z,100798.00
2023-03-17T02:12:35.134Z,100800.20
2023-03-17T02:15:07.677Z,100791.80
2023-03-17T02:17:37.820Z,100790.20
2023-03-17T02:21:13.381Z,100793.00
2023-03-17T02:23:45.116Z,100780.80
2023-03-17T02:26:14.847Z,100777.60
2023-03-17T02:28:45.734Z,100773.00
2023-03-17T02:31:16.008Z,100775.60
2023-03-17T02:33:46.681Z,100776.80
2023-03-17T02:36:20.087Z,100772.00
2023-03-17T02:38:50.356Z,100770.40
2023-03-17T02:41:20.709Z,100781.40
2023-03-17T02:43:51.549Z,100781.00
2023-03-17T02:46:23.342Z,100786.60
2023-03-17T02:48:54.809Z,100788.40
2023-03-17T02:51:24.618Z,100792.40
2023-03-17T02:53:54.612Z,100784.00
2023-03-17T02:56:24.788Z,100784.60
2023-03-17T02:58:55.285Z,100783.80
2023-03-17T03:01:26.356Z,100785.40
2023-03-17T03:03:56.436Z,100782.20
2023-03-17T03:06:26.884Z,100779.80
2023-03-17T03:08:55.768Z,100782.00
2023-03-17T03:11:26.150Z,100781.20
2023-03-17T03:13:55.629Z,100780.80
2023-03-17T03:16:26.196Z,100779.80
2023-03-17T03:18:57.092Z,100778.80
2023-03-17T03:21:27.141Z,100773.20
2023-03-17T03:23:57.181Z,100777.40
2023-03-17T03:26:27.974Z,100771.20
2023-03-17T03:28:59.533Z,100768.40
2023-03-17T03:31:29.660Z,100765.80
2023-03-17T03:33:59.425Z,100770.00
2023-03-17T03:36:29.304Z,100768.20
2023-03-17T03:39:00.439Z,100768.40
2023-03-17T03:41:31.177Z,100774.40
2023-03-17T03:44:01.308Z,100767.40
2023-03-17T03:46:31.150Z,100755.40
2023-03-17T03:49:00.961Z,100750.80
2023-03-17T03:51:30.703Z,100746.20
2023-03-17T03:54:01.214Z,100745.80
2023-03-17T03:56:29.914Z,100739.00
2023-03-17T03:58:59.820Z,100747.40
2023-03-17T04:01:30.011Z,100739.20
2023-03-17T04:03:59.981Z,100739.00
2023-03-17T04:06:30.021Z,100736.40
2023-03-17T04:08:59.727Z,100741.60
2023-03-17T04:11:29.745Z,100736.60
2023-03-17T04:13:59.653Z,100732.20
2023-03-17T04:16:29.396Z,100737.40
2023-03-17T04:18:59.534Z,100741.40
2023-03-17T04:21:29.425Z,100730.80
2023-03-17T04:24:00.092Z,100725.60
2023-03-17T04:26:29.873Z,100719.00
2023-03-17T04:29:00.287Z,100721.80
2023-03-17T04:31:30.253Z,100723.60
2023-03-17T04:33:59.985Z,100730.40
2023-03-17T04:36:30.137Z,100734.80
2023-03-17T04:38:59.863Z,100729.00
2023-03-17T04:41:29.917Z,100726.00
2023-03-17T04:43:59.747Z,100729.60
2023-03-17T04:46:29.603Z,100733.60
2023-03-17T04:48:59.651Z,100735.20
2023-03-17T04:51:29.534Z,100736.20
2023-03-17T04:54:00.156Z,100736.20
2023-03-17T04:56:31.711Z,100737.40
2023-03-17T04:59:02.273Z,100734.00
2023-03-17T05:01:32.189Z,100735.60
2023-03-17T05:04:02.132Z,100737.80
2023-03-17T05:06:32.269Z,100738.40
2023-03-17T05:09:02.165Z,100734.40
2023-03-17T05:11:32.310Z,100729.40
2023-03-17T05:14:02.350Z,100730.40
2023-03-17T05:16:32.475Z,100727.20
2023-03-17T05:19:02.286Z,100734.20
2023-03-17T05:21:32.468Z,100727.60
2023-03-17T05:24:02.219Z,100731.60
2023-03-17T05:26:32.854Z,100730.60
2023-03-17T05:29:02.741Z,100727.80
2023-03-17T05:31:32.786Z,100724.20
2023-03-17T05:34:03.617Z,100728.20
2023-03-17T05:36:33.662Z,100727.00
2023-03-17T05:39:03.917Z,100724.40
2023-03-17T05:41:33.783Z,100719.20
2023-03-17T05:44:04.278Z,100720.60
2023-03-17T05:46:35.084Z,100722.00
2023-03-17T05:49:05.082Z,100716.40
2023-03-17T05:51:37.031Z,100725.60
2023-03-17T05:54:08.353Z,100729.20
2023-03-17T05:56:38.049Z,100724.40
2023-03-17T05:59:07.850Z,100719.00
2023-03-17T06:01:38.347Z,100724.20
2023-03-17T06:04:08.693Z,100726.80
2023-03-17T06:06:39.433Z,100720.00
2023-03-17T06:09:09.192Z,100717.00
2023-03-17T06:11:38.944Z,100716.80
2023-03-17T06:14:08.804Z,100719.00
2023-03-17T06:16:38.640Z,100715.40
2023-03-17T06:19:08.415Z,100707.60
2023-03-17T06:21:38.137Z,100705.40
2023-03-17T06:24:09.740Z,100716.20
2023-03-17T06:26:39.871Z,100705.60
2023-03-17T06:29:10.889Z,100708.60
2023-03-17T06:31:41.826Z,100708.60
2023-03-17T06:34:11.589Z,100702.60
2023-03-17T06:36:44.802Z,100698.80
2023-03-17T06:39:15.829Z,100703.20
2023-03-17T06:41:45.678Z,100709.00
2023-03-17T06:44:15.546Z,100704.40
2023-03-17T06:46:45.371Z,100706.80
2023-03-17T06:49:15.409Z,100713.20
2023-03-17T06:51:45.193Z,100708.60
2023-03-17T06:54:14.942Z,100706.00
2023-03-17T06:56:44.977Z,100706.40
2023-03-17T06:59:14.743Z,100707.60
2023-03-17T07:01:44.990Z,100704.40
2023-03-17T07:04:14.913Z,100704.20
2023-03-17T07:06:45.605Z,100704.60
2023-03-17T07:09:16.575Z,100697.40
2023-03-17T07:11:46.285Z,100695.40
2023-03-17T07:14:16.047Z,100694.80
2023-03-17T07:16:47.933Z,100698.80
2023-03-17T07:19:17.979Z,100699.20
2023-03-17T07:21:47.766Z,100697.20
2023-03-17T07:24:17.670Z,100697.40
2023-03-17T07:26:47.530Z,100706.60
2023-03-17T07:29:22.187Z,100700.80
2023-03-17T07:31:53.438Z,100703.20
2023-03-17T07:34:23.854Z,100700.60
2023-03-17T07:36:53.915Z,100699.60
2023-03-17T07:39:27.149Z,100699.60
2023-03-17T07:41:56.914Z,100699.80
2023-03-17T07:44:28.390Z,100698.40
2023-03-17T07:46:58.147Z,100690.60
2023-03-17T07:49:40.849Z,100680.80
2023-03-17T07:52:12.384Z,100685.60
2023-03-17T07:54:43.272Z,100687.80
2023-03-17T07:57:16.240Z,100681.80
2023-03-17T07:59:46.770Z,100680.00
2023-03-17T08:02:17.124Z,100673.00
2023-03-17T08:04:47.078Z,100681.80
2023-03-17T08:07:16.928Z,100676.40
2023-03-17T08:09:47.317Z,100669.00
2023-03-17T08:12:17.686Z,100664.60
2023-03-17T08:14:48.168Z,100665.00
2023-03-17T08:17:18.523Z,100672.20
2023-03-17T08:19:47.357Z,100668.80
2023-03-17T08:22:17.840Z,100666.40
2023-03-17T08:24:46.681Z,100655.60
2023-03-17T08:27:18.231Z,100653.20
2023-03-17T08:29:49.365Z,100647.60
2023-03-17T08:32:19.591Z,100648.40
2023-03-17T08:34:48.933Z,100651.00
2023-03-17T08:37:18.593Z,100651.60
2023-03-17T08:39:49.084Z,100646.80
2023-03-17T08:42:17.762Z,100647.20
2023-03-17T08:44:47.423Z,100646.00
2023-03-17T08:47:17.735Z,100630.60
2023-03-17T08:49:47.350Z,100631.60
2023-03-17T08:52:17.793Z,100633.80
2023-03-17T08:54:48.288Z,100635.40
2023-03-17T08:57:17.765Z,100624.80
2023-03-17T08:59:47.830Z,100635.40
2023-03-17T09:02:17.766Z,100639.20
2023-03-17T09:04:48.799Z,100638.20
2023-03-17T09:07:18.486Z,100654.80
2023-03-17T09:09:49.230Z,100656.40
2023-03-17T09:12:19.012Z,100648.80
2023-03-17T09:14:50.079Z,100658.40
2023-03-17T09:17:19.837Z,100653.40
2023-03-17T09:19:49.628Z,100645.80
2023-03-17T09:22:20.333Z,100648.00
2023-03-17T09:24:50.236Z,100649.20
2023-03-17T09:27:20.581Z,100645.20
2023-03-17T09:29:49.335Z,100647.80
2023-03-17T09:32:19.058Z,100655.80
2023-03-17T09:34:51.479Z,100659.20
2023-03-17T09:37:21.448Z,100658.40
2023-03-17T09:39:52.214Z,100648.00
2023-03-17T09:42:47.436Z,100629.80
2023-03-17T09:45:31.251Z,100616.80
2023-03-17T09:48:36.254Z,100610.60
2023-03-17T09:51:10.280Z,100623.60
2023-03-17T09:53:48.901Z,100619.40
2023-03-17T09:56:20.749Z,100637.60
2023-03-17T09:58:54.297Z,100649.20
2023-03-17T10:01:25.040Z,100646.00
2023-03-17T10:03:55.266Z,100635.60
2023-03-17T10:06:36.314Z,100625.80
2023-03-17T10:09:18.543Z,100617.80
2023-03-17T10:11:53.553Z,100624.40
2023-03-17T10:14:51.968Z,100628.40
2023-03-17T10:17:24.064Z,100624.60
2023-03-17T10:20:00.648Z,100623.00
2023-03-17T10:22:37.064Z,100618.80
2023-03-17T10:25:15.290Z,100614.20
2023-03-17T10:27:50.960Z,100612.40
2023-03-17T10:30:23.692Z,100610.20
2023-03-17T10:32:54.578Z,100595.40
2023-03-17T10:35:25.235Z,100600.40
2023-03-17T10:38:11.859Z,100592.00
2023-03-17T10:40:48.315Z,100605.00
2023-03-17T10:43:28.580Z,100611.00
2023-03-17T10:46:04.134Z,100608.00
2023-03-17T10:48:39.658Z,100607.60
2023-03-17T10:51:20.389Z,100607.00
2023-03-17T10:53:54.194Z,100606.20
2023-03-17T10:56:29.589Z,100603.80
2023-03-17T10:59:07.211Z,100594.20
2023-03-17T11:01:40.884Z,100587.80
2023-03-17T11:04:32.720Z,100588.20
2023-03-17T11:07:14.875Z,100573.00
2023-03-17T11:09:48.568Z,100566.40
2023-03-17T11:12:27.868Z,100556.80
2023-03-17T11:15:02.861Z,100543.60
2023-03-17T11:17:48.319Z,100526.20
2023-03-17T11:20:39.505Z,100523.20
2023-03-17T11:23:23.201Z,100529.40
2023-03-17T11:26:01.989Z,100532.40
2023-03-17T11:28:37.153Z,100533.00
2023-03-17T11:31:14.800Z,100530.60
2023-03-17T11:33:56.571Z,100529.80
2023-03-17T11:36:45.044Z,100523.40
2023-03-17T11:39:19.185Z,100524.60
2023-03-17T11:42:05.378Z,100516.00
2023-03-17T11:45:20.269Z,100516.00
2023-03-17T11:48:06.677Z,100505.20
2023-03-17T11:50:45.207Z,100490.60
2023-03-17T11:53:36.634Z,100483.00
2023-03-17T11:56:13.245Z,100485.40
2023-03-17T11:58:45.010Z,100489.20
2023-03-17T12:01:21.081Z,100494.20
2023-03-17T12:03:59.112Z,100487.40
2023-03-17T12:06:34.611Z,100488.80
2023-03-17T12:09:12.626Z,100479.20
2023-03-17T12:11:45.881Z,100474.20
2023-03-17T12:14:28.669Z,100472.00
2023-03-17T12:17:09.598Z,100462.60
2023-03-17T12:19:57.902Z,100456.40
2023-03-17T12:22:34.295Z,100452.00
2023-03-17T12:25:18.898Z,100448.20
2023-03-17T12:27:59.228Z,100448.00
2023-03-17T12:30:38.231Z,100438.00
2023-03-17T12:33:20.869Z,100434.80
2023-03-17T12:35:51.566Z,100425.40
2023-03-17T12:38:27.877Z,100420.40
2023-03-17T12:41:31.128Z,100422.60
2023-03-17T12:44:11.731Z,100426.20
2023-03-17T12:47:04.315Z,100433.40
2023-03-17T12:50:10.290Z,100437.60
2023-03-17T12:52:56.598Z,100431.00
2023-03-17T12:55:31.228Z,100428.80
2023-03-17T12:58:04.184Z,100423.20
2023-03-17T13:00:48.713Z,100425.20
2023-03-17T13:03:25.536Z,100424.40
2023-03-17T13:06:01.684Z,100419.00
2023-03-17T13:08:34.518Z,100423.60
2023-03-17T13:11:25.858Z,100423.40
2023-03-17T13:14:26.568Z,100420.00
2023-03-17T13:17:27.974Z,100415.80
2023-03-17T13:20:12.059Z,100414.40
2023-03-17T13:23:01.203Z,100423.20
2023-03-17T13:25:35.401Z,100413.00
2023-03-17T13:28:47.532Z,100409.60
2023-03-17T13:31:37.340Z,100414.20
2023-03-17T13:34:17.330Z,100408.60
2023-03-17T13:37:01.187Z,100411.60
2023-03-17T13:40:06.170Z,100399.60
2023-03-17T13:42:53.674Z,100395.60
2023-03-17T13:45:36.942Z,100393.40
2023-03-17T13:48:34.568Z,100383.20
2023-03-17T13:51:17.358Z,100381.60
2023-03-17T13:53:52.194Z,100384.80
2023-03-17T13:56:30.008Z,100385.80
2023-03-17T13:59:14.538Z,100382.80
2023-03-17T14:01:53.791Z,100387.20
2023-03-17T14:04:29.761Z,100389.00
2023-03-17T14:07:06.377Z,100383.80
2023-03-17T14:09:39.832Z,100386.40
2023-03-17T14:12:19.131Z,100393.00
2023-03-17T14:14:55.827Z,100385.40
2023-03-17T14:17:31.549Z,100380.40
2023-03-17T14:20:21.561Z,100385.60
2023-03-17T14:22:57.255Z,100385.60
2023-03-17T14:25:33.525Z,100388.00
2023-03-17T14:28:10.749Z,100382.40
2023-03-17T14:30:50.541Z,100376.60
2023-03-17T14:33:25.526Z,100379.40
2023-03-17T14:35:59.008Z,100376.60
2023-03-17T14:38:31.892Z,100373.20
2023-03-17T14:41:08.023Z,100371.40
2023-03-17T14:43:38.260Z,100365.80
2023-03-17T14:46:13.416Z,100360.80
2023-03-17T14:48:47.488Z,100355.40
2023-03-17T14:51:26.679Z,100359.80
2023-03-17T14:54:01.043Z,100352.40
2023-03-17T14:56:37.422Z,100349.40
2023-03-17T14:59:16.631Z,100339.00
2023-03-17T15:01:48.109Z,100341.60
2023-03-17T15:04:22.605Z,100339.80
2023-03-17T15:06:54.405Z,100330.80
2023-03-17T15:09:28.940Z,100336.40
2023-03-17T15:12:04.662Z,100334.00
2023-03-17T15:14:38.825Z,100326.80
2023-03-17T15:17:18.646Z,100318.80
2023-03-17T15:19:51.944Z,100314.60
2023-03-17T15:22:29.989Z,100317.60
2023-03-17T15:25:17.363Z,100318.20
2023-03-17T15:27:49.038Z,100314.40
2023-03-17T15:30:20.924Z,100311.40
2023-03-17T15:33:00.136Z,100307.40
2023-03-17T15:35:30.564Z,100304.20
2023-03-17T15:37:59.618Z,100308.40
2023-03-17T15:40:29.746Z,100307.40
2023-03-17T15:43:00.132Z,100309.20
2023-03-17T15:45:30.145Z,100307.00
2023-03-17T15:48:00.749Z,100304.60
2023-03-17T15:50:33.619Z,100306.20
2023-03-17T15:53:03.773Z,100314.60
2023-03-17T15:55:33.570Z,100305.60
2023-03-17T15:58:03.675Z,100314.40
2023-03-17T16:00:34.514Z,100313.60
2023-03-17T16:03:16.751Z,100307.60
2023-03-17T16:05:47.022Z,100315.20
2023-03-17T16:08:17.740Z,100317.60
2023-03-17T16:10:48.100Z,100309.80
2023-03-17T16:13:18.799Z,100308.80
2023-03-17T16:15:53.963Z,100302.20
2023-03-17T16:18:31.704Z,100300.60
2023-03-17T16:21:03.737Z,100295.80
2023-03-17T16:23:37.339Z,100296.60
2023-03-17T16:26:15.703Z,100291.20
2023-03-17T16:28:48.625Z,100294.60
2023-03-17T16:31:26.420Z,100303.20
2023-03-17T16:33:57.229Z,100297.80
2023-03-17T16:36:27.238Z,100301.40
2023-03-17T16:38:57.808Z,100306.00
2023-03-17T16:41:29.020Z,100308.80
2023-03-17T16:44:03.340Z,100314.60
2023-03-17T16:46:35.615Z,100317.00
2023-03-17T16:49:06.326Z,100317.80
2023-03-17T16:51:35.033Z,100316.60
2023-03-17T16:54:05.382Z,100313.40
2023-03-17T16:56:35.470Z,100308.00
2023-03-17T16:59:07.385Z,100307.20
2023-03-17T17:01:37.165Z,100304.60
2023-03-17T17:04:10.905Z,100298.20
2023-03-17T17:06:40.730Z,100295.40
2023-03-17T17:09:10.854Z,100296.80
2023-03-17T17:11:40.729Z,100296.60
2023-03-17T17:14:10.685Z,100300.40
2023-03-17T17:16:40.751Z,100300.80
2023-03-17T17:19:16.543Z,100303.00
2023-03-17T17:21:46.553Z,100307.20
2023-03-17T17:24:16.754Z,100308.80
2023-03-17T17:26:46.656Z,100310.80
2023-03-17T17:29:16.790Z,100310.00
2023-03-17T17:31:46.654Z,100309.40
2023-03-17T17:34:16.599Z,100306.80
2023-03-17T17:36:47.551Z,100304.60
2023-03-17T17:39:17.468Z,100304.20
2023-03-17T17:41:47.946Z,100306.60
2023-03-17T17:44:18.628Z,100308.40
2023-03-17T17:46:49.032Z,100307.00
2023-03-17T17:49:19.057Z,100306.00
2023-03-17T17:51:48.908Z,100306.00
2023-03-17T17:54:19.481Z,100309.00
2023-03-17T17:56:50.032Z,100311.80
2023-03-17T17:59:20.538Z,100310.20
2023-03-17T18:01:49.260Z,100316.60
2023-03-17T18:04:20.921Z,100326.60
2023-03-17T18:06:51.128Z,100317.80
2023-03-17T18:09:21.582Z,100323.00
2023-03-17T18:11:51.475Z,100313.20
2023-03-17T18:14:21.630Z,100313.00
2023-03-17T18:16:51.886Z,100311.00
2023-03-17T18:19:22.746Z,100314.40
2023-03-17T18:21:53.345Z,100312.00
2023-03-17T18:24:23.732Z,100301.80
2023-03-17T18:26:53.618Z,100300.60
2023-03-17T18:29:23.420Z,100295.40
2023-03-17T18:31:55.513Z,100291.60
2023-03-17T18:34:29.695Z,100292.20
2023-03-17T18:37:01.849Z,100295.80
2023-03-17T18:39:34.246Z,100294.40
2023-03-17T18:42:05.293Z,100293.40
2023-03-17T18:44:36.235Z,100292.20
2023-03-17T18:47:08.621Z,100293.00
2023-03-17T18:49:38.417Z,100291.40
2023-03-17T18:52:08.565Z,100294.20
2023-03-17T18:54:39.171Z,100293.20
2023-03-17T18:57:10.694Z,100293.80
2023-03-17T18:59:40.867Z,100297.00
2023-03-17T19:02:11.634Z,100292.00
2023-03-17T19:04:45.945Z,100293.00
2023-03-17T19:07:16.664Z,100289.20
2023-03-17T19:09:47.960Z,100285.60
2023-03-17T19:12:18.226Z,100294.60
2023-03-17T19:14:48.362Z,100290.60
2023-03-17T19:17:18.596Z,100290.20
2023-03-17T19:19:49.827Z,100290.20
2023-03-17T19:22:20.938Z,100288.00
2023-03-17T19:24:50.865Z,100293.80
2023-03-17T19:27:21.293Z,100292.80
2023-03-17T19:29:53.537Z,100289.20
2023-03-17T19:32:23.762Z,100291.00
2023-03-17T19:34:54.160Z,100283.20
2023-03-17T19:37:23.984Z,100284.80
2023-03-17T19:39:54.489Z,100287.60
2023-03-17T19:42:23.226Z,100285.40
2023-03-17T19:44:53.042Z,100289.80
2023-03-17T19:47:22.995Z,100287.80
2023-03-17T19:49:53.297Z,100291.80
2023-03-17T19:52:23.326Z,100292.40
2023-03-17T19:54:53.447Z,100295.00
2023-03-17T19:57:23.562Z,100296.00
2023-03-17T19:59:53.613Z,100300.40
2023-03-17T20:02:23.485Z,100307.00
2023-03-17T20:04:54.080Z,100302.80
2023-03-17T20:07:22.936Z,100298.20
2023-03-17T20:09:53.557Z,100302.60
2023-03-17T20:12:24.679Z,100301.40
2023-03-17T20:14:54.592Z,100295.20
2023-03-17T20:17:24.338Z,100291.60
2023-03-17T20:19:54.381Z,100285.40
2023-03-17T20:22:26.544Z,100280.20
2023-03-17T20:24:57.628Z,100282.60
2023-03-17T20:27:27.497Z,100281.80
2023-03-17T20:29:58.248Z,100278.80
2023-03-17T20:32:29.436Z,100277.40
2023-03-17T20:34:59.704Z,100275.60
2023-03-17T20:37:32.027Z,100267.80
2023-03-17T20:40:04.241Z,100266.80
2023-03-17T20:42:34.195Z,100271.40
2023-03-17T20:45:04.505Z,100271.60
2023-03-17T20:47:34.366Z,100271.20
2023-03-17T20:50:05.819Z,100268.00
2023-03-17T20:52:39.262Z,100260.80
2023-03-17T20:55:13.390Z,100267.60
2023-03-17T20:57:47.003Z,100264.60
2023-03-17T21:00:20.789Z,100267.60
2023-03-17T21:02:53.669Z,100270.60
2023-03-17T21:05:26.533Z,100272.80
2023-03-17T21:07:57.126Z,100263.20
2023-03-17T21:10:25.939Z,100263.80
2023-03-17T21:12:55.658Z,100260.60
2023-03-17T21:15:25.469Z,100258.60
2023-03-17T21:17:55.375Z,100251.80
2023-03-17T21:20:25.717Z,100253.40
2023-03-17T21:22:56.120Z,100251.40
2023-03-17T21:25:26.737Z,100249.00
2023-03-17T21:27:56.560Z,100243.40
2023-03-17T21:30:26.420Z,100245.80
2023-03-17T21:32:56.248Z,100240.00
2023-03-17T21:35:26.249Z,100240.60
2023-03-17T21:37:56.620Z,100229.40
2023-03-17T21:40:26.408Z,100234.00
2023-03-17T21:42:57.025Z,100237.40
2023-03-17T21:45:28.034Z,100243.80
2023-03-17T21:47:58.030Z,100245.60
2023-03-17T21:50:28.249Z,100247.60
2023-03-17T21:52:58.058Z,100235.00
2023-03-17T21:55:30.623Z,100229.60
2023-03-17T21:58:00.401Z,100227.80
2023-03-17T22:00:42.667Z,100223.40
2023-03-17T22:03:14.675Z,100219.60
2023-03-17T22:05:46.588Z,100225.00
2023-03-17T22:08:16.535Z,100222.40
2023-03-17T22:10:46.370Z,100219.00
2023-03-17T22:13:16.406Z,100224.00
2023-03-17T22:15:46.208Z,100228.20
2023-03-17T22:18:17.436Z,100226.40
2023-03-17T22:20:47.258Z,100226.80
2023-03-17T22:23:17.547Z,100223.60
2023-03-17T22:25:50.370Z,100227.40
2023-03-17T22:28:20.401Z,100222.40
2023-03-17T22:30:51.019Z,100222.80
2023-03-17T22:33:20.847Z,100221.20
2023-03-17T22:35:50.767Z,100214.40
2023-03-17T22:38:24.711Z,100215.80
2023-03-17T22:41:05.423Z,100212.40
2023-03-17T22:43:34.381Z,100204.20
2023-03-17T22:46:04.393Z,100208.80
2023-03-17T22:48:35.444Z,100201.80
2023-03-17T22:51:07.815Z,100196.60
2023-03-17T22:53:38.791Z,100195.40
2023-03-17T22:56:11.075Z,100194.80
2023-03-17T22:58:41.293Z,100197.80
2023-03-17T23:01:12.982Z,100196.60
2023-03-17T23:03:45.169Z,100193.60
2023-03-17T23:06:15.872Z,100196.80
2023-03-17T23:08:47.179Z,100197.80
2023-03-17T23:11:20.690Z,100198.80
2023-03-17T23:13:52.072Z,100205.00
2023-03-17T23:16:22.334Z,100198.80
2023-03-17T23:18:52.143Z,100200.80
2023-03-17T23:21:28.332Z,100199.80
2023-03-17T23:23:58.894Z,100194.60
2023-03-17T23:26:29.524Z,100193.80
2023-03-17T23:28:59.867Z,100192.00
2023-03-17T23:31:29.780Z,100195.20
2023-03-17T23:33:59.680Z,100186.80
2023-03-17T23:36:30.102Z,100188.60
2023-03-17T23:39:02.981Z,100190.00
2023-03-17T23:41:33.038Z,100186.60
2023-03-17T23:44:04.903Z,100182.20
2023-03-17T23:46:36.080Z,100190.60
2023-03-17T23:49:07.130Z,100188.00
2023-03-17T23:51:36.886Z,100190.80
2023-03-17T23:54:09.022Z,100191.20
2023-03-17T23:56:40.412Z,100190.60
2023-03-17T23:59:11.450Z,100185.00
